Terminal Aerodrome Forecast
Issued by NWS

Home | Current Version | Previous Version | Text Only | Print | Product List | Glossary On
Versions: 1 2 3 4 5 6 7 8 9 10 11 12 13 14
000
FTAK31 PAJN 062300
TAFAKT
TAF
PAKT 062322Z 0700/0724 13012KT P6SM FEW040
     FM070400 32006KT P6SM SCT200
     FM070800 VRB04KT P6SM SCT200
     FM071600 11008KT P6SM BKN100
      AMD LTD TO CLD VIS AND WIND 0706/0715=

USA.gov is the U.S. government's official web portal to all federal, state and local government web resources and services.